This is the latest recevied weather packets stored in our database for station/object N1UNH. If no packets are shown the sender has not sent any weather packets the latest 10 day(s).
| Time | Temp. | Humidity | Pressure | Rain* | Wind** | Luminosity | Snow |
|---|---|---|---|---|---|---|---|
| 1778031463 | 16.11° C | 88% | 1014.3 hPa | 0 mm | - | 0 W/m² | - |
| 1778031160 | 16.67° C | 86% | 1014.1 hPa | 0 mm | - | 0 W/m² | - |
| 1778030856 | 16.67° C | 87% | 1014.1 hPa | 0 mm | - | 0 W/m² | - |
| 1778030554 | 16.67° C | 87% | 1014 hPa | 0 mm | - | 0 W/m² | - |
| 1778030251 | 16.67° C | 88% | 1013.8 hPa | 0 mm | - | 0 W/m² | - |
| 1778029947 | 16.67° C | 86% | 1014.2 hPa | 0 mm | - | 0 W/m² | - |
| 1778029646 | 16.67° C | 87% | 1013.9 hPa | 0 mm | - | 0 W/m² | - |
| 1778029343 | 16.67° C | 88% | 1014.1 hPa | 0 mm | - | 0 W/m² | - |
| 1778029040 | 16.67° C | 87% | 1013.8 hPa | 0 mm | - | 0 W/m² | - |
| 1778028736 | 16.67° C | 87% | 1014.1 hPa | 0 mm | - | 0 W/m² | - |
| 1778028432 | 16.67° C | 86% | 1014.1 hPa | 0 mm | - | 0 W/m² | - |
| 1778028130 | 16.67° C | 86% | 1014.2 hPa | 0 mm | - | 0 W/m² | - |
| 1778027826 | 17.22° C | 85% | 1014.2 hPa | 0 mm | - | 0 W/m² | - |
| 1778027522 | 17.22° C | 84% | 1013.9 hPa | 0 mm | - | 0 W/m² | - |
| 1778027218 | 17.22° C | 83% | 1013.6 hPa | 0 mm | - | 0 W/m² | - |
| 1778026915 | 17.22° C | 82% | 1013.5 hPa | 0 mm | - | 0 W/m² | - |
| 1778026610 | 17.22° C | 80% | 1013 hPa | 0 mm | - | 0 W/m² | - |
| 1778026308 | 17.22° C | 82% | 1013.2 hPa | 0 mm | - | 0 W/m² | - |
| 1778026005 | 17.22° C | 83% | 1013.2 hPa | 0 mm | - | 0 W/m² | - |
| 1778025702 | 17.78° C | 85% | 1012.9 hPa | 0 mm | - | 0 W/m² | - |
| 1778025400 | 17.78° C | 82% | 1012.6 hPa | 0 mm | - | 0 W/m² | - |
| 1778025097 | 18.89° C | 79% | 1012.6 hPa | 1.78 mm | - | 0 W/m² | - |
| 1778024794 | 20.56° C | 69% | 1012.6 hPa | 1.78 mm | - | 0 W/m² | - |
| 1778024491 | 21.11° C | 57% | 1012.6 hPa | 0 mm | - | 0 W/m² | - |
| 1778024188 | 21.67° C | 53% | 1012.5 hPa | 0 mm | - | 0 W/m² | - |
* Rain latest hour (hover to see other rain measurements)
** Current wind speed in m/s (hover to see current wind gust speed)